Time;durP1;ratioP1;P1;durP2;ratioP2;P2;SDS_P1;SDS_P2;PMS_P1;PMS_P2;Temp;Humidity;BMP_temperature;BMP_pressure;BME280_temperature;BME280_humidity;BME280_pressure;Samples;Min_cycle;Max_cycle;Signal;HPM_P1;HPM_P2
2023/10/28 00:01:36;;;;;;;0.90;0.52;;;11.40;99.90;;;;;;5033146;28;20088;-67
2023/10/28 00:04:02;;;;;;;1.27;0.47;;;11.40;99.90;;;;;;5033462;28;20475;-67
2023/10/28 00:06:29;;;;;;;1.65;0.52;;;11.40;99.90;;;;;;5031728;28;20272;-67
2023/10/28 00:08:54;;;;;;;0.50;0.43;;;11.30;99.90;;;;;;5031647;28;20033;-67
2023/10/28 00:11:20;;;;;;;2.73;0.63;;;11.30;99.90;;;;;;5032764;28;20025;-67
2023/10/28 00:13:46;;;;;;;2.78;0.70;;;11.20;99.90;;;;;;5036163;28;20022;-67
2023/10/28 00:16:12;;;;;;;1.07;0.50;;;11.20;99.90;;;;;;5035304;28;20029;-67
2023/10/28 00:18:37;;;;;;;2.60;0.77;;;11.20;99.90;;;;;;5036893;28;20260;-67
2023/10/28 00:21:07;;;;;;;1.77;0.73;;;11.20;99.90;;;;;;5036710;28;20041;-67
2023/10/28 00:23:36;;;;;;;2.40;0.70;;;11.20;99.90;;;;;;5032452;23;20041;-62
2023/10/28 00:26:05;;;;;;;2.47;0.77;;;11.20;99.90;;;;;;5015366;28;20181;-62
2023/10/28 00:28:34;;;;;;;2.15;0.73;;;11.20;99.90;;;;;;5016500;28;20044;-62
2023/10/28 00:31:01;;;;;;;1.10;0.40;;;11.10;99.90;;;;;;5016351;28;20022;-61
2023/10/28 00:33:26;;;;;;;0.57;0.40;;;11.10;99.90;;;;;;5015105;28;20022;-63
2023/10/28 00:35:52;;;;;;;1.23;0.68;;;11.10;99.90;;;;;;5014942;28;20021;-61
2023/10/28 00:38:18;;;;;;;1.30;0.70;;;11.10;99.90;;;;;;5016044;28;20057;-63
2023/10/28 00:40:44;;;;;;;2.55;0.65;;;11.20;99.90;;;;;;5014841;28;20554;-62
2023/10/28 00:43:10;;;;;;;2.40;0.70;;;11.10;99.90;;;;;;5016217;28;20030;-63
2023/10/28 00:45:38;;;;;;;4.88;1.10;;;11.20;99.90;;;;;;5014783;28;20396;-63
2023/10/28 00:48:04;;;;;;;1.92;0.60;;;11.10;99.90;;;;;;5015037;28;20034;-62
2023/10/28 00:50:30;;;;;;;2.00;0.65;;;11.10;99.90;;;;;;5015940;28;20033;-62
2023/10/28 00:52:58;;;;;;;3.78;0.82;;;11.10;99.90;;;;;;5017178;28;20022;-63
2023/10/28 00:55:23;;;;;;;3.35;0.50;;;11.20;99.90;;;;;;5018875;28;20056;-63
2023/10/28 00:57:49;;;;;;;3.53;1.00;;;11.20;99.90;;;;;;5017381;28;20033;-61
2023/10/28 01:00:16;;;;;;;4.80;0.80;;;11.10;99.90;;;;;;5014469;28;20325;-62
2023/10/28 01:02:42;;;;;;;1.48;0.82;;;11.10;99.90;;;;;;5016189;28;20091;-62
2023/10/28 01:05:11;;;;;;;2.63;0.90;;;11.20;99.90;;;;;;5015939;28;20402;-62
2023/10/28 01:07:38;;;;;;;1.50;0.68;;;11.10;99.90;;;;;;5015811;28;20032;-63
2023/10/28 01:10:04;;;;;;;3.20;0.93;;;11.10;99.90;;;;;;5015862;28;20510;-62
2023/10/28 01:12:30;;;;;;;4.03;0.77;;;11.10;99.90;;;;;;5015984;28;20042;-62
2023/10/28 01:15:00;;;;;;;3.60;0.87;;;11.00;99.90;;;;;;5015503;28;20377;-63
2023/10/28 01:17:26;;;;;;;3.05;1.00;;;11.00;99.90;;;;;;5017039;28;20481;-63
2023/10/28 01:19:53;;;;;;;1.60;0.80;;;11.00;99.90;;;;;;5016143;28;20033;-63
2023/10/28 01:22:19;;;;;;;3.17;0.90;;;11.00;99.90;;;;;;5015416;28;20042;-62
2023/10/28 01:24:45;;;;;;;2.95;1.00;;;11.10;99.90;;;;;;5015365;28;20030;-64
2023/10/28 01:27:11;;;;;;;1.77;0.80;;;11.00;99.90;;;;;;5015723;28;20033;-63
2023/10/28 01:29:36;;;;;;;2.73;0.70;;;11.00;99.90;;;;;;5015876;28;20030;-63
2023/10/28 01:32:03;;;;;;;5.55;1.00;;;11.00;99.90;;;;;;5015329;28;20061;-62
2023/10/28 01:34:29;;;;;;;3.75;0.90;;;10.90;99.90;;;;;;5015392;28;20080;-62
2023/10/28 01:36:56;;;;;;;4.10;0.98;;;10.90;99.90;;;;;;5013960;28;20073;-63
2023/10/28 01:39:21;;;;;;;3.40;0.75;;;10.90;99.90;;;;;;5015552;28;20037;-63
2023/10/28 01:41:47;;;;;;;1.40;0.87;;;11.00;99.90;;;;;;5015203;28;20030;-63
2023/10/28 01:44:14;;;;;;;5.83;1.27;;;11.00;99.90;;;;;;5015251;28;20041;-62
2023/10/28 01:46:40;;;;;;;1.92;0.90;;;11.10;99.90;;;;;;5015195;28;20099;-61
2023/10/28 01:49:06;;;;;;;6.03;0.90;;;11.10;99.90;;;;;;5015583;28;20022;-62
2023/10/28 01:51:32;;;;;;;3.43;0.70;;;11.10;99.90;;;;;;5014627;28;20431;-63
2023/10/28 01:53:57;;;;;;;4.70;0.80;;;11.00;99.90;;;;;;5014770;28;20022;-61
2023/10/28 01:56:23;;;;;;;2.55;0.70;;;10.90;99.90;;;;;;5015298;28;20049;-63
2023/10/28 01:58:48;;;;;;;2.50;0.60;;;11.00;99.90;;;;;;5015103;28;20529;-63
2023/10/28 02:01:14;;;;;;;1.83;0.93;;;10.90;99.90;;;;;;5015762;28;20127;-61
2023/10/28 02:03:39;;;;;;;2.57;0.70;;;10.80;99.90;;;;;;5020761;28;20025;-62
2023/10/28 02:06:06;;;;;;;2.90;0.90;;;10.70;99.90;;;;;;5019309;28;20069;-62
2023/10/28 02:08:32;;;;;;;2.30;1.10;;;10.80;99.90;;;;;;5019738;28;20029;-63
2023/10/28 02:10:58;;;;;;;3.42;0.93;;;10.90;99.90;;;;;;5020898;28;20044;-63
2023/10/28 02:13:23;;;;;;;0.90;0.67;;;10.90;99.90;;;;;;5036135;28;20025;-63
2023/10/28 02:15:49;;;;;;;3.50;0.90;;;10.90;99.90;;;;;;5017441;28;20046;-63
2023/10/28 02:18:18;;;;;;;2.85;1.02;;;11.00;99.90;;;;;;5015600;28;20444;-63
2023/10/28 02:20:44;;;;;;;3.85;0.93;;;11.00;99.90;;;;;;5017327;28;20036;-63
2023/10/28 02:23:10;;;;;;;4.30;1.00;;;11.00;99.90;;;;;;5014666;28;20462;-62
2023/10/28 02:25:36;;;;;;;3.78;0.90;;;11.00;99.90;;;;;;5015250;28;20113;-63
2023/10/28 02:28:02;;;;;;;1.60;0.75;;;10.90;99.90;;;;;;5014563;28;20113;-63
2023/10/28 02:30:27;;;;;;;2.73;0.73;;;10.90;99.90;;;;;;5014399;28;20105;-63
2023/10/28 02:32:54;;;;;;;2.00;0.87;;;10.90;99.90;;;;;;5015262;28;20026;-62
2023/10/28 02:35:19;;;;;;;;;;;10.90;99.90;;;;;;5028695;28;20029;-63
2023/10/28 02:37:45;;;;;;;3.10;0.93;;;10.90;99.90;;;;;;5014139;28;19905;-64
2023/10/28 02:40:11;;;;;;;2.03;0.70;;;10.90;99.90;;;;;;5014838;28;20022;-62
2023/10/28 02:42:36;;;;;;;4.55;1.13;;;11.10;99.90;;;;;;5014725;28;20057;-62
2023/10/28 02:45:04;;;;;;;8.87;1.30;;;11.00;99.90;;;;;;5013779;28;20030;-62
2023/10/28 02:47:33;;;;;;;3.83;1.55;;;11.10;99.90;;;;;;5013712;28;20264;-63
2023/10/28 02:49:59;;;;;;;5.70;1.10;;;11.10;99.90;;;;;;5013716;28;20037;-62
2023/10/28 02:52:25;;;;;;;5.55;1.58;;;11.30;99.90;;;;;;5013887;28;20064;-62
2023/10/28 02:54:52;;;;;;;3.72;0.90;;;11.30;99.90;;;;;;5013869;28;20037;-64
2023/10/28 02:57:17;;;;;;;4.28;1.35;;;11.30;99.90;;;;;;5012465;28;20488;-64
2023/10/28 02:59:43;;;;;;;8.13;1.47;;;11.30;99.90;;;;;;5013713;28;20032;-62
2023/10/28 03:02:09;;;;;;;6.83;1.20;;;11.40;99.90;;;;;;5014163;28;20037;-64
2023/10/28 03:04:34;;;;;;;5.43;1.15;;;11.40;99.90;;;;;;5014063;28;20034;-63
2023/10/28 03:07:00;;;;;;;4.47;1.33;;;11.30;99.90;;;;;;5013759;28;20465;-64
2023/10/28 03:09:25;;;;;;;6.43;1.37;;;11.30;99.90;;;;;;5012543;28;20025;-62
2023/10/28 03:11:51;;;;;;;5.07;1.30;;;11.30;99.90;;;;;;5014133;28;20408;-63
2023/10/28 03:14:16;;;;;;;5.33;1.57;;;11.40;99.90;;;;;;5012993;28;20029;-62
2023/10/28 03:16:44;;;;;;;9.23;1.47;;;11.40;99.90;;;;;;5014326;28;20107;-63
2023/10/28 03:19:11;;;;;;;8.45;1.52;;;11.40;99.90;;;;;;5014378;28;20406;-62
2023/10/28 03:21:36;;;;;;;;;;;11.50;99.90;;;;;;5014495;28;20033;-63
2023/10/28 03:24:02;;;;;;;12.68;2.03;;;11.60;99.90;;;;;;5013947;28;19920;-62
2023/10/28 03:26:27;;;;;;;6.57;1.43;;;11.70;99.90;;;;;;5014076;28;20030;-63
2023/10/28 03:28:53;;;;;;;6.77;1.07;;;11.60;99.90;;;;;;5014153;28;20477;-62
2023/10/28 03:31:18;;;;;;;7.70;1.30;;;11.60;99.90;;;;;;5014414;28;20044;-63
2023/10/28 03:33:46;;;;;;;7.67;1.83;;;11.60;99.90;;;;;;5014635;28;20487;-63
2023/10/28 03:36:11;;;;;;;9.90;1.27;;;11.60;99.90;;;;;;5014345;28;20024;-63
2023/10/28 03:38:37;;;;;;;6.77;1.20;;;11.60;99.90;;;;;;5029377;28;20022;-62
2023/10/28 03:41:07;;;;;;;3.92;1.20;;;11.70;99.90;;;;;;5012535;28;20048;-62
2023/10/28 03:43:33;;;;;;;5.80;1.15;;;11.70;99.90;;;;;;5014623;28;20536;-63
2023/10/28 03:45:58;;;;;;;5.80;1.00;;;11.70;99.90;;;;;;5014641;28;20061;-64
2023/10/28 03:48:24;;;;;;;5.93;1.03;;;11.60;99.90;;;;;;5014806;28;20136;-63
2023/10/28 03:51:02;;;;;;;7.55;1.38;;;11.60;99.90;;;;;;5015014;28;20022;-63
2023/10/28 03:53:27;;;;;;;3.35;1.10;;;11.60;99.90;;;;;;5014733;28;20362;-64
2023/10/28 03:55:53;;;;;;;3.30;1.27;;;11.70;99.90;;;;;;5014194;28;20053;-64
2023/10/28 03:58:19;;;;;;;6.80;1.43;;;11.80;99.90;;;;;;5015063;28;20030;-63
2023/10/28 04:00:45;;;;;;;6.32;1.25;;;11.80;99.90;;;;;;5016580;28;20335;-64
2023/10/28 04:03:11;;;;;;;5.78;1.30;;;11.70;99.90;;;;;;5016787;28;20041;-64
2023/10/28 04:05:38;;;;;;;9.32;1.40;;;11.70;99.90;;;;;;5015364;28;20380;-63
2023/10/28 04:08:04;;;;;;;1.23;0.75;;;11.70;99.90;;;;;;5013284;28;20022;-63
2023/10/28 04:10:30;;;;;;;6.93;1.20;;;11.80;99.90;;;;;;5014729;28;20080;-63
2023/10/28 04:12:55;;;;;;;7.45;1.10;;;11.90;99.90;;;;;;5012704;28;20021;-64
2023/10/28 04:15:21;;;;;;;4.03;1.20;;;11.80;99.90;;;;;;5014121;28;20046;-63
2023/10/28 04:17:46;;;;;;;7.00;1.95;;;11.70;99.90;;;;;;5013158;28;20028;-63
2023/10/28 04:20:12;;;;;;;6.43;1.20;;;11.80;99.90;;;;;;5013158;28;20033;-63
2023/10/28 04:22:37;;;;;;;8.37;1.57;;;11.80;99.90;;;;;;5013883;28;20038;-63
2023/10/28 04:25:05;;;;;;;8.10;1.80;;;11.80;99.90;;;;;;5029441;28;20025;-63
2023/10/28 04:27:31;;;;;;;6.07;1.02;;;11.80;99.90;;;;;;5014231;28;20026;-65
2023/10/28 04:29:57;;;;;;;4.50;1.02;;;11.70;99.90;;;;;;5013872;28;20038;-63
2023/10/28 04:32:27;;;;;;;4.97;1.20;;;11.70;99.90;;;;;;5029165;28;20030;-62
2023/10/28 04:34:52;;;;;;;3.67;1.17;;;11.80;99.90;;;;;;5014949;28;20499;-63
2023/10/28 04:37:18;;;;;;;5.30;1.20;;;11.70;99.90;;;;;;5014613;28;20033;-63
2023/10/28 04:39:43;;;;;;;7.47;1.27;;;11.80;99.90;;;;;;5014302;28;20034;-63
2023/10/28 04:42:09;;;;;;;3.93;1.20;;;11.70;99.90;;;;;;5014269;28;20038;-64
2023/10/28 04:44:34;;;;;;;5.00;1.00;;;11.60;99.90;;;;;;5029443;28;20034;-64
2023/10/28 04:47:01;;;;;;;7.07;1.40;;;11.70;99.90;;;;;;5013057;28;20029;-63
2023/10/28 04:49:27;;;;;;;;;;;11.60;99.90;;;;;;5014305;28;20060;-64
2023/10/28 04:51:54;;;;;;;6.70;2.08;;;11.70;99.90;;;;;;5014041;28;19920;-63
2023/10/28 04:54:19;;;;;;;3.72;1.10;;;11.70;99.90;;;;;;5014141;28;20427;-64
2023/10/28 04:56:45;;;;;;;11.67;1.50;;;11.70;99.90;;;;;;5014444;28;20018;-63
2023/10/28 04:59:10;;;;;;;7.90;1.30;;;11.70;99.90;;;;;;5016189;28;20026;-64
2023/10/28 05:01:36;;;;;;;6.37;1.17;;;11.80;99.90;;;;;;5017638;28;20026;-62
2023/10/28 05:04:02;;;;;;;6.03;1.43;;;11.70;99.90;;;;;;5017832;28;20121;-63
2023/10/28 05:06:27;;;;;;;4.32;1.17;;;11.60;99.90;;;;;;5017817;28;20057;-64
2023/10/28 05:08:53;;;;;;;2.87;0.93;;;11.60;99.90;;;;;;5015774;28;20481;-64
2023/10/28 05:11:19;;;;;;;4.27;1.20;;;11.70;99.90;;;;;;5017244;28;20034;-63
2023/10/28 05:13:44;;;;;;;6.90;1.08;;;11.80;99.90;;;;;;5017402;28;20547;-63
2023/10/28 05:16:10;;;;;;;4.50;1.93;;;11.80;99.90;;;;;;5018782;28;20029;-63
2023/10/28 05:18:36;;;;;;;4.40;0.77;;;11.80;99.90;;;;;;5018716;28;20426;-63
2023/10/28 05:21:02;;;;;;;3.88;0.77;;;11.80;99.90;;;;;;5018027;28;20323;-63
2023/10/28 05:23:27;;;;;;;4.63;0.73;;;11.80;99.90;;;;;;5017646;28;20042;-63
2023/10/28 05:25:53;;;;;;;3.77;0.67;;;12.00;99.90;;;;;;5017738;28;20022;-63
2023/10/28 05:28:19;;;;;;;2.97;1.08;;;12.00;99.90;;;;;;5015729;28;20506;-63
2023/10/28 05:30:48;;;;;;;6.10;1.00;;;12.10;99.90;;;;;;5017787;28;20105;-63
2023/10/28 05:33:13;;;;;;;3.90;0.90;;;12.00;99.90;;;;;;5017721;28;20033;-63
2023/10/28 05:35:39;;;;;;;3.37;0.80;;;12.00;99.90;;;;;;5017805;28;20044;-64
2023/10/28 05:38:05;;;;;;;4.10;1.00;;;12.10;99.90;;;;;;5016790;28;20091;-62
2023/10/28 05:40:30;;;;;;;1.23;0.53;;;12.10;99.90;;;;;;5017087;28;20045;-64
2023/10/28 05:42:56;;;;;;;1.93;0.57;;;12.20;99.90;;;;;;5017910;28;20034;-64
2023/10/28 05:45:21;;;;;;;2.43;0.77;;;12.30;99.90;;;;;;5016190;28;20056;-63
2023/10/28 05:47:47;;;;;;;2.97;0.70;;;12.40;99.90;;;;;;5015641;28;20034;-65
2023/10/28 05:50:13;;;;;;;3.17;0.97;;;12.30;99.90;;;;;;5008279;28;20105;-65
2023/10/28 05:52:38;;;;;;;3.57;0.70;;;12.20;99.90;;;;;;5017579;28;20042;-63
2023/10/28 05:55:05;;;;;;;7.53;1.37;;;12.30;99.90;;;;;;5026140;28;20447;-63
2023/10/28 05:57:30;;;;;;;1.77;0.80;;;12.20;99.90;;;;;;5032885;28;20025;-64
2023/10/28 05:59:56;;;;;;;3.17;0.70;;;12.30;99.90;;;;;;5018770;28;20091;-64
2023/10/28 06:02:21;;;;;;;5.07;0.73;;;12.40;99.90;;;;;;5033746;28;20112;-63
2023/10/28 06:04:47;;;;;;;3.60;0.70;;;12.30;99.90;;;;;;5035077;28;20087;-63
2023/10/28 06:07:12;;;;;;;2.93;0.70;;;12.20;99.90;;;;;;5035533;28;20514;-64
2023/10/28 06:09:38;;;;;;;3.37;0.70;;;12.20;99.90;;;;;;5034106;28;20033;-63
2023/10/28 06:12:04;;;;;;;4.37;1.33;;;12.20;99.90;;;;;;5051131;28;20026;-63
2023/10/28 06:14:30;;;;;;;4.78;1.20;;;12.10;99.90;;;;;;5013684;28;20366;-63
2023/10/28 06:16:57;;;;;;;1.38;0.80;;;12.10;99.90;;;;;;5034523;28;20027;-62
2023/10/28 06:19:23;;;;;;;2.00;0.70;;;12.30;99.90;;;;;;5025346;28;20101;-63
2023/10/28 06:21:49;;;;;;;4.43;0.80;;;12.30;99.90;;;;;;5021639;28;20050;-64
2023/10/28 06:24:14;;;;;;;5.15;0.70;;;12.20;99.90;;;;;;5031328;28;20404;-66
2023/10/28 06:26:40;;;;;;;4.57;0.80;;;12.20;99.90;;;;;;5033627;28;20464;-66
2023/10/28 06:29:05;;;;;;;3.23;1.07;;;12.40;99.90;;;;;;5033487;28;20026;-66
2023/10/28 06:31:36;;;;;;;3.03;0.70;;;12.40;99.90;;;;;;5033826;28;20033;-67
2023/10/28 06:34:04;;;;;;;5.28;0.73;;;12.40;99.90;;;;;;5034016;28;20021;-66
2023/10/28 06:36:29;;;;;;;4.28;0.70;;;12.50;99.90;;;;;;5033735;28;20403;-65
2023/10/28 06:38:55;;;;;;;4.00;0.70;;;12.40;99.90;;;;;;5033032;28;20028;-66
2023/10/28 06:41:21;;;;;;;3.28;0.75;;;12.40;99.90;;;;;;5033885;28;20110;-65
2023/10/28 06:43:46;;;;;;;4.07;0.80;;;12.60;99.90;;;;;;5033771;28;20105;-66
2023/10/28 06:46:13;;;;;;;5.37;0.77;;;12.60;99.90;;;;;;5033978;28;20036;-65
2023/10/28 06:48:38;;;;;;;;;;;12.50;99.90;;;;;;5034624;28;20114;-65
2023/10/28 06:51:04;;;;;;;3.72;0.80;;;12.50;99.90;;;;;;5034185;28;20386;-66
2023/10/28 06:53:30;;;;;;;3.97;0.90;;;12.50;99.90;;;;;;5005628;28;20026;-66
2023/10/28 06:55:56;;;;;;;4.57;1.00;;;12.50;99.90;;;;;;5033114;28;20028;-65
2023/10/28 06:58:21;;;;;;;4.77;0.80;;;12.60;99.90;;;;;;5032398;28;20089;-65
2023/10/28 07:00:47;;;;;;;2.93;0.67;;;12.60;99.90;;;;;;5032519;28;20403;-66
2023/10/28 07:03:14;;;;;;;4.77;1.10;;;12.60;99.90;;;;;;5032753;28;20026;-65
2023/10/28 07:05:40;;;;;;;4.00;0.90;;;12.50;99.90;;;;;;5033894;28;20387;-65
2023/10/28 07:08:05;;;;;;;5.63;1.33;;;12.50;99.90;;;;;;5033580;28;20040;-66
2023/10/28 07:10:31;;;;;;;6.57;1.30;;;12.40;99.90;;;;;;5033665;28;20448;-66
2023/10/28 07:12:56;;;;;;;3.00;1.13;;;12.50;99.90;;;;;;5033677;28;20387;-66
2023/10/28 07:15:22;;;;;;;2.00;0.70;;;12.60;99.90;;;;;;5033997;28;20060;-66
2023/10/28 07:17:47;;;;;;;3.93;1.00;;;12.60;99.90;;;;;;5034395;28;20022;-65
2023/10/28 07:20:13;;;;;;;4.23;1.00;;;12.70;99.90;;;;;;5033738;28;20369;-66
2023/10/28 07:22:41;;;;;;;4.20;1.00;;;12.70;99.90;;;;;;5023380;28;20045;-65
2023/10/28 07:25:07;;;;;;;5.15;0.90;;;12.80;99.90;;;;;;5013721;28;20129;-65
2023/10/28 07:27:32;;;;;;;3.50;1.08;;;12.90;99.90;;;;;;5013183;28;20049;-65
2023/10/28 07:29:59;;;;;;;3.57;0.80;;;12.90;99.90;;;;;;5013180;28;20030;-66
2023/10/28 07:32:25;;;;;;;;;;;13.10;99.90;;;;;;5013538;28;20018;-67
2023/10/28 07:34:50;;;;;;;4.82;0.80;;;13.10;99.90;;;;;;5012035;28;19967;-66
2023/10/28 07:37:16;;;;;;;4.72;0.93;;;13.20;99.90;;;;;;5012338;28;20029;-65
2023/10/28 07:39:43;;;;;;;4.33;0.90;;;13.10;99.90;;;;;;5027856;28;20021;-66
2023/10/28 07:42:08;;;;;;;3.90;1.10;;;13.20;99.90;;;;;;5027975;28;20484;-67
2023/10/28 07:44:34;;;;;;;4.43;1.20;;;13.10;99.90;;;;;;5012790;28;20034;-67
2023/10/28 07:47:00;;;;;;;3.65;0.80;;;13.20;99.90;;;;;;5012420;28;20022;-67
2023/10/28 07:49:26;;;;;;;4.40;1.42;;;13.30;99.90;;;;;;5012866;28;20029;-67
2023/10/28 07:51:51;;;;;;;4.77;1.60;;;13.40;99.90;;;;;;5012592;28;20511;-67
2023/10/28 07:54:17;;;;;;;3.80;1.47;;;13.40;99.90;;;;;;4997605;28;20844;-67
2023/10/28 07:56:42;;;;;;;5.63;1.20;;;13.40;99.90;;;;;;4993475;28;20026;-67
2023/10/28 07:59:09;;;;;;;3.60;0.90;;;13.60;99.90;;;;;;4994036;28;20026;-67
2023/10/28 08:01:35;;;;;;;3.92;1.20;;;13.50;99.90;;;;;;4993386;28;20035;-68
2023/10/28 08:04:04;;;;;;;6.97;1.30;;;13.50;99.90;;;;;;5009025;28;20024;-66
2023/10/28 08:06:30;;;;;;;2.88;0.90;;;13.50;99.90;;;;;;5012964;28;20145;-66
2023/10/28 08:08:56;;;;;;;3.80;1.60;;;13.40;99.90;;;;;;5012593;28;20492;-67
2023/10/28 08:11:24;;;;;;;3.30;1.23;;;13.40;99.90;;;;;;5012477;28;20124;-65
2023/10/28 08:13:52;;;;;;;6.10;2.22;;;13.30;99.90;;;;;;5010978;28;20279;-67
2023/10/28 08:16:20;;;;;;;7.63;2.20;;;13.40;99.90;;;;;;5011835;28;20614;-67
2023/10/28 08:18:49;;;;;;;6.50;2.70;;;13.50;99.90;;;;;;5010682;28;20084;-64
2023/10/28 08:21:16;;;;;;;6.97;2.53;;;13.70;99.90;;;;;;5014955;28;20022;-64
2023/10/28 08:23:45;;;;;;;8.48;3.20;;;13.70;99.90;;;;;;5017573;28;20025;-62
2023/10/28 08:26:11;;;;;;;9.68;3.00;;;13.60;99.90;;;;;;5020391;28;20033;-63
2023/10/28 08:28:40;;;;;;;11.18;3.15;;;13.70;99.90;;;;;;5015460;28;20017;-69
2023/10/28 08:31:09;;;;;;;8.52;3.13;;;13.70;99.90;;;;;;5029971;28;20037;-69
2023/10/28 08:33:35;;;;;;;10.10;3.17;;;13.70;99.90;;;;;;5030795;28;20032;-69
2023/10/28 08:36:01;;;;;;;5.82;2.50;;;13.70;99.90;;;;;;5021630;28;20099;-66
2023/10/28 08:38:27;;;;;;;5.73;2.17;;;13.90;99.90;;;;;;5014526;28;20484;-66
2023/10/28 08:40:53;;;;;;;7.93;1.80;;;13.90;99.90;;;;;;5015101;28;20257;-66
2023/10/28 08:43:19;;;;;;;5.65;1.70;;;14.00;99.90;;;;;;5015172;28;20032;-66
2023/10/28 08:45:47;;;;;;;5.97;1.73;;;14.00;99.90;;;;;;5015477;28;20018;-65
2023/10/28 08:48:16;;;;;;;3.10;1.30;;;14.00;99.90;;;;;;5015990;28;20069;-66
2023/10/28 08:50:49;;;;;;;8.68;1.67;;;14.20;99.90;;;;;;5015937;28;20480;-66
2023/10/28 08:53:17;;;;;;;7.47;1.27;;;14.30;99.90;;;;;;5014083;28;20037;-66
2023/10/28 08:55:44;;;;;;;5.30;1.02;;;14.40;99.90;;;;;;5016256;28;20080;-65
2023/10/28 08:58:11;;;;;;;2.55;1.10;;;14.40;99.90;;;;;;5017407;28;20025;-66
2023/10/28 09:00:38;;;;;;;;;;;14.40;99.90;;;;;;5035938;28;20476;-66
2023/10/28 09:03:05;;;;;;;5.60;1.02;;;14.50;99.90;;;;;;5024247;28;19952;-66
2023/10/28 09:05:31;;;;;;;;;;;14.50;99.90;;;;;;5015300;28;20033;-66
2023/10/28 09:07:57;;;;;;;5.55;1.23;;;14.60;99.90;;;;;;5015565;28;20261;-63
2023/10/28 09:10:23;;;;;;;6.30;1.53;;;14.60;99.90;;;;;;5016912;28;20030;-64
2023/10/28 09:12:51;;;;;;;7.35;1.20;;;14.70;99.90;;;;;;5016414;28;20556;-63
2023/10/28 09:15:17;;;;;;;3.92;0.90;;;14.90;99.90;;;;;;5032360;28;20025;-64
2023/10/28 09:17:42;;;;;;;;;;;15.10;99.90;;;;;;5017871;28;20025;-64
2023/10/28 09:20:11;;;;;;;8.10;1.20;;;15.40;99.90;;;;;;5016655;28;19909;-67
2023/10/28 09:22:44;;;;;;;6.20;1.67;;;15.40;99.90;;;;;;5016765;28;20084;-67
2023/10/28 09:25:11;;;;;;;3.03;1.10;;;15.50;99.90;;;;;;5014957;28;20033;-66
2023/10/28 09:27:38;;;;;;;4.63;1.10;;;15.40;99.90;;;;;;5006434;28;20496;-66
2023/10/28 09:30:05;;;;;;;4.60;1.05;;;15.40;99.90;;;;;;4994345;28;20033;-66
2023/10/28 09:32:33;;;;;;;4.15;1.38;;;15.30;99.90;;;;;;4994367;28;20098;-66
2023/10/28 09:35:05;;;;;;;2.72;0.95;;;15.20;99.90;;;;;;4994820;28;20488;-65
2023/10/28 09:37:35;;;;;;;3.67;1.20;;;15.10;99.90;;;;;;5001630;28;20022;-66
2023/10/28 09:40:02;;;;;;;8.70;1.90;;;15.00;99.90;;;;;;5014650;28;20499;-65
2023/10/28 09:42:31;;;;;;;6.90;1.65;;;15.00;99.90;;;;;;5015522;28;20068;-66
2023/10/28 09:45:01;;;;;;;4.78;1.00;;;15.00;99.90;;;;;;5015069;28;20029;-66
2023/10/28 09:47:46;;;;;;;5.15;1.08;;;14.90;99.90;;;;;;5015280;28;20152;-66
2023/10/28 09:50:14;;;;;;;7.03;1.85;;;15.10;99.90;;;;;;5030389;28;20112;-66
2023/10/28 09:52:43;;;;;;;6.25;1.48;;;15.10;99.90;;;;;;5013236;28;20022;-66
2023/10/28 09:55:13;;;;;;;8.15;1.98;;;15.10;99.90;;;;;;5014598;28;20041;-66
2023/10/28 09:57:40;;;;;;;7.35;1.67;;;15.30;99.90;;;;;;5014793;28;20041;-67
2023/10/28 10:00:17;;;;;;;;;;;15.30;99.90;;;;;;5015329;28;20028;-66
2023/10/28 10:03:06;;;;;;;4.25;1.05;;;15.50;99.90;;;;;;5014826;28;20394;-67
2023/10/28 10:05:45;;;;;;;3.17;1.20;;;15.80;99.90;;;;;;5014928;28;20030;-68
2023/10/28 10:08:21;;;;;;;4.70;1.20;;;16.00;99.90;;;;;;5014255;28;20032;-67
2023/10/28 10:10:49;;;;;;;6.53;1.25;;;16.00;99.90;;;;;;5015043;28;20500;-66
2023/10/28 10:13:17;;;;;;;5.28;1.45;;;16.10;99.90;;;;;;5014511;28;20369;-67
2023/10/28 10:16:03;;;;;;;6.20;1.42;;;16.10;99.90;;;;;;5015719;28;20064;-67
2023/10/28 10:18:37;;;;;;;5.32;1.10;;;16.20;99.90;;;;;;5014763;28;20516;-67
2023/10/28 10:21:07;;;;;;;5.97;1.17;;;16.20;99.90;;;;;;5014522;28;20029;-67
2023/10/28 10:23:43;;;;;;;6.10;2.75;;;16.10;99.90;;;;;;5014218;28;20026;-67
2023/10/28 10:26:20;;;;;;;5.57;1.30;;;16.10;99.90;;;;;;5014435;28;20092;-69
2023/10/28 10:28:46;;;;;;;4.85;1.10;;;16.10;99.90;;;;;;5014495;28;20469;-67
2023/10/28 10:31:12;;;;;;;6.30;1.35;;;16.20;99.90;;;;;;5014446;28;20040;-67
2023/10/28 10:33:38;;;;;;;6.20;1.45;;;16.10;99.90;;;;;;5014387;28;20527;-68
2023/10/28 10:36:14;;;;;;;8.93;1.65;;;16.10;99.90;;;;;;5014282;28;20018;-67
2023/10/28 10:38:40;;;;;;;3.42;0.77;;;15.90;99.90;;;;;;5012734;28;20033;-68
2023/10/28 10:41:06;;;;;;;5.78;1.55;;;15.90;99.90;;;;;;5014408;28;20026;-67
2023/10/28 10:43:32;;;;;;;4.97;1.35;;;15.90;99.90;;;;;;5014182;28;20499;-67
2023/10/28 10:45:58;;;;;;;7.25;1.98;;;15.70;99.90;;;;;;5013069;28;20026;-68
2023/10/28 10:48:27;;;;;;;;;;;15.70;99.90;;;;;;5014622;28;20025;-68
2023/10/28 10:50:54;;;;;;;7.68;1.90;;;15.70;99.90;;;;;;5028972;28;19906;-68
2023/10/28 10:53:19;;;;;;;10.13;2.08;;;15.50;99.90;;;;;;5012207;28;20026;-68
2023/10/28 10:55:45;;;;;;;6.07;1.63;;;15.50;99.90;;;;;;5013700;28;20029;-68
2023/10/28 10:58:11;;;;;;;6.80;1.77;;;15.60;99.90;;;;;;5013495;28;20488;-67
2023/10/28 11:00:37;;;;;;;;;;;15.60;99.90;;;;;;5013999;28;20378;-67
2023/10/28 11:03:03;;;;;;;7.32;1.75;;;15.60;99.90;;;;;;5013433;28;19912;-67
2023/10/28 11:05:30;;;;;;;4.97;1.77;;;15.50;99.90;;;;;;5013845;28;20021;-67
2023/10/28 11:07:56;;;;;;;8.75;1.85;;;15.50;99.90;;;;;;5013496;28;20030;-68
2023/10/28 11:10:22;;;;;;;5.05;1.30;;;15.70;99.90;;;;;;5013786;28;20384;-68
2023/10/28 11:12:49;;;;;;;4.93;1.30;;;15.60;99.90;;;;;;5013797;28;20056;-70
2023/10/28 11:15:15;;;;;;;4.80;1.65;;;15.90;99.90;;;;;;5014076;28;20032;-69
2023/10/28 11:17:41;;;;;;;8.57;2.17;;;15.80;99.90;;;;;;5013062;28;20116;-70
2023/10/28 11:20:09;;;;;;;7.40;1.48;;;15.80;99.90;;;;;;5014251;28;20026;-69
2023/10/28 11:22:39;;;;;;;4.25;1.65;;;15.70;99.90;;;;;;5012274;28;20033;-70
2023/10/28 11:25:06;;;;;;;13.95;2.40;;;15.80;99.90;;;;;;5013467;28;20525;-69
2023/10/28 11:27:32;;;;;;;8.50;3.08;;;15.80;99.90;;;;;;5028521;28;20038;-70
2023/10/28 11:29:58;;;;;;;6.93;1.50;;;15.90;99.90;;;;;;5014228;28;20025;-70
2023/10/28 11:32:28;;;;;;;8.70;4.20;;;16.00;99.90;;;;;;5014171;28;20289;-69
2023/10/28 11:34:56;;;;;;;14.90;3.28;;;16.00;99.90;;;;;;5028776;28;20030;-67
2023/10/28 11:37:22;;;;;;;7.18;1.60;;;16.00;99.90;;;;;;5013344;28;20018;-66
2023/10/28 11:39:49;;;;;;;7.38;2.10;;;16.10;99.90;;;;;;5012903;28;20105;-68
2023/10/28 11:42:15;;;;;;;;;;;16.00;99.90;;;;;;5013600;28;20034;-68
2023/10/28 11:44:49;;;;;;;8.40;1.83;;;15.90;99.90;;;;;;5013246;28;19984;-68
2023/10/28 11:47:15;;;;;;;7.70;1.60;;;15.60;99.90;;;;;;5011850;28;20034;-68
2023/10/28 11:49:41;;;;;;;8.60;2.00;;;15.50;99.90;;;;;;5013088;28;20156;-68
2023/10/28 11:52:06;;;;;;;8.80;1.60;;;15.50;99.90;;;;;;5012769;28;20089;-68
2023/10/28 11:54:33;;;;;;;6.18;1.33;;;15.50;99.90;;;;;;5012753;28;20538;-67
2023/10/28 11:56:59;;;;;;;6.10;1.75;;;15.50;99.90;;;;;;5013779;28;20034;-68
2023/10/28 11:59:24;;;;;;;9.70;2.35;;;15.40;99.90;;;;;;5016010;28;20061;-68
2023/10/28 12:01:52;;;;;;;11.90;1.93;;;15.40;99.90;;;;;;5016229;28;20192;-67
2023/10/28 12:04:18;;;;;;;7.32;1.83;;;15.20;99.90;;;;;;5029832;28;20359;-67
2023/10/28 12:06:44;;;;;;;5.45;1.33;;;14.90;99.90;;;;;;5012962;28;20046;-64
2023/10/28 12:09:12;;;;;;;7.33;1.47;;;14.70;99.90;;;;;;5016916;28;20034;-66
2023/10/28 12:11:38;;;;;;;6.07;2.05;;;14.50;99.90;;;;;;5016995;28;20128;-65
2023/10/28 12:14:07;;;;;;;6.88;2.00;;;14.30;99.90;;;;;;5017471;28;20481;-68
2023/10/28 12:16:37;;;;;;;9.43;2.28;;;14.10;99.90;;;;;;5017072;28;20022;-67
2023/10/28 12:19:05;;;;;;;6.13;1.92;;;13.90;99.90;;;;;;5017173;28;20381;-63
2023/10/28 12:21:31;;;;;;;7.05;1.77;;;13.90;99.90;;;;;;5016675;28;20036;-62
2023/10/28 12:23:57;;;;;;;7.43;1.60;;;13.90;99.90;;;;;;4997099;28;20034;-62
2023/10/28 12:26:22;;;;;;;6.03;1.95;;;13.80;99.90;;;;;;5015945;23;20122;-64
2023/10/28 12:28:48;;;;;;;8.13;2.53;;;13.70;99.90;;;;;;5044254;28;20079;-63
2023/10/28 12:31:14;;;;;;;11.57;1.80;;;13.70;99.90;;;;;;5037017;28;20424;-62
2023/10/28 12:33:40;;;;;;;9.45;1.70;;;13.60;99.90;;;;;;5036080;28;20090;-65
2023/10/28 12:36:08;;;;;;;7.90;1.73;;;13.60;99.90;;;;;;5036106;28;20483;-60
2023/10/28 12:38:34;;;;;;;8.65;2.17;;;13.60;99.90;;;;;;5036093;28;20426;-65
2023/10/28 12:41:00;;;;;;;11.02;1.73;;;13.60;99.90;;;;;;5036250;28;20368;-62
2023/10/28 12:43:27;;;;;;;8.75;1.80;;;13.60;99.90;;;;;;5034449;28;20027;-62
2023/10/28 12:45:54;;;;;;;10.65;2.08;;;13.60;99.90;;;;;;5035376;28;20440;-63
2023/10/28 12:48:20;;;;;;;7.43;1.83;;;13.60;99.90;;;;;;5034885;28;20029;-62